Claquato, Washington
Current Conditions -  °F | °C
As of 7:35 AM on Monday 22 Dec 2014 (Local Time) from KCLS Reporting Station
Few Clouds Few Clouds  
Wind Chill: 39°   Ceiling: Unl
Heat Index: 43°   Visibility: 10mi
Dew Point: 43°   Wind: 6mph
Humidity: 100%   Direction: 200°SSW
Pressure: 30.32"   Gusts: NA
Location:  46.6561°N, 122.993°W
Report Text: KCLS 221535Z AUTO 20005KT 10SM FEW039 06/06 A3032 RMK AO2
Loading
Personal Weather Stations






























Interactive Weather Map New forecast layout! Learn more

10-Day Weather Forecast

Advertisements
Track Severe Weather on mobile